createdAt,value
2024-02-27T00:03:18.701Z,9.43
2024-02-27T00:08:21.704Z,8.63
2024-02-27T00:13:24.501Z,9.48
2024-02-27T00:18:27.536Z,8.72
2024-02-27T00:23:30.547Z,8.83
2024-02-27T00:28:33.451Z,8.54
2024-02-27T00:33:36.384Z,8.60
2024-02-27T00:38:39.681Z,9.48
2024-02-27T00:43:42.773Z,8.76
2024-02-27T00:48:45.639Z,9.00
2024-02-27T00:53:48.493Z,8.34
2024-02-27T00:58:51.270Z,8.43
2024-02-27T01:03:54.095Z,8.19
2024-02-27T01:08:56.968Z,8.93
2024-02-27T01:13:59.891Z,8.68
2024-02-27T01:19:02.924Z,8.73
2024-02-27T01:24:07.243Z,8.76
2024-02-27T01:29:10.373Z,8.61
2024-02-27T01:34:13.634Z,8.36
2024-02-27T01:39:16.647Z,8.56
2024-02-27T01:44:19.718Z,8.22
2024-02-27T01:49:23.550Z,8.39
2024-02-27T01:54:27.402Z,8.21
2024-02-27T01:59:30.756Z,7.82
2024-02-27T02:04:34.318Z,9.12
2024-02-27T02:09:37.281Z,8.49
2024-02-27T02:14:40.119Z,8.48
2024-02-27T02:19:43.053Z,9.08
2024-02-27T02:24:46.203Z,8.38
2024-02-27T02:29:49.118Z,8.48
2024-02-27T02:34:51.975Z,8.57
2024-02-27T02:39:55.091Z,9.23
2024-02-27T02:44:57.974Z,8.94
2024-02-27T02:50:08.981Z,8.09
2024-02-27T02:55:12.250Z,8.41
2024-02-27T03:00:15.718Z,8.63
2024-02-27T03:05:18.761Z,8.13
2024-02-27T03:10:21.853Z,8.53
2024-02-27T03:15:24.725Z,8.50
2024-02-27T03:20:27.712Z,8.42
2024-02-27T03:25:30.688Z,8.37
2024-02-27T03:30:33.457Z,7.65
2024-02-27T03:35:37.548Z,8.47
2024-02-27T03:40:40.316Z,8.60
2024-02-27T03:45:43.152Z,8.68
2024-02-27T03:50:45.977Z,8.25
2024-02-27T03:55:48.970Z,8.47
2024-02-27T04:00:52.630Z,9.09
2024-02-27T04:05:56.753Z,8.38
2024-02-27T04:10:59.801Z,8.42
2024-02-27T04:16:03.843Z,8.11
2024-02-27T04:21:06.872Z,8.53
2024-02-27T04:26:10.197Z,8.65
2024-02-27T04:31:13.365Z,8.96
2024-02-27T04:36:16.419Z,9.11
2024-02-27T04:41:19.453Z,9.10
2024-02-27T04:46:22.255Z,9.13
2024-02-27T04:51:25.008Z,8.86
2024-02-27T04:56:27.813Z,8.82
2024-02-27T05:01:30.850Z,9.11
2024-02-27T05:06:33.895Z,9.51
2024-02-27T05:11:36.909Z,8.69
2024-02-27T05:16:40.169Z,9.28
2024-02-27T05:21:43.085Z,9.04
2024-02-27T05:26:46.019Z,8.95
2024-02-27T05:31:48.877Z,8.72
2024-02-27T05:36:52.230Z,9.04
2024-02-27T05:41:55.784Z,8.74
2024-02-27T05:46:58.759Z,8.87
2024-02-27T05:52:01.699Z,8.82
2024-02-27T05:57:06.610Z,9.28
2024-02-27T06:02:09.510Z,8.97
2024-02-27T06:07:12.980Z,9.26
2024-02-27T06:12:15.857Z,9.67
2024-02-27T06:17:18.923Z,9.19
2024-02-27T06:22:24.042Z,9.56
2024-02-27T06:27:27.014Z,9.23
2024-02-27T06:32:29.869Z,8.93
2024-02-27T06:37:32.652Z,9.22
2024-02-27T06:42:38.324Z,9.43
2024-02-27T06:47:43.910Z,9.24
2024-02-27T06:52:46.773Z,9.09
2024-02-27T06:57:51.310Z,9.70
2024-02-27T07:02:54.357Z,9.68
2024-02-27T07:07:57.124Z,9.87
2024-02-27T07:13:00.130Z,9.62
2024-02-27T07:18:03.962Z,9.79
2024-02-27T07:23:06.932Z,9.95
2024-02-27T07:28:16.915Z,10.00
2024-02-27T07:33:24.991Z,10.00
2024-02-27T07:38:27.848Z,10.08
2024-02-27T07:43:30.761Z,10.24
2024-02-27T07:48:33.995Z,9.98
2024-02-27T07:53:36.966Z,10.19
2024-02-27T07:58:40.283Z,10.60
2024-02-27T08:03:43.522Z,10.45
2024-02-27T08:08:46.545Z,10.30
2024-02-27T08:13:49.705Z,9.85
2024-02-27T08:18:52.991Z,10.23
2024-02-27T08:23:55.985Z,9.85
2024-02-27T08:28:58.789Z,9.92
2024-02-27T08:34:05.747Z,9.30
2024-02-27T08:39:10.722Z,9.48
2024-02-27T08:44:13.714Z,9.81
2024-02-27T08:49:16.858Z,10.25
2024-02-27T08:54:19.755Z,10.26
2024-02-27T08:59:23.531Z,10.36
2024-02-27T09:04:26.602Z,10.27
2024-02-27T09:09:29.693Z,10.26
2024-02-27T09:14:33.555Z,9.81
2024-02-27T09:19:37.164Z,10.33
2024-02-27T09:24:40.143Z,10.58
2024-02-27T09:29:44.827Z,9.96
2024-02-27T09:34:48.307Z,10.22
2024-02-27T09:39:58.054Z,10.53
2024-02-27T09:45:09.660Z,11.18
2024-02-27T09:50:20.099Z,11.12
2024-02-27T09:55:25.160Z,9.99
2024-02-27T10:00:28.274Z,10.29
2024-02-27T10:05:31.557Z,10.22
2024-02-27T10:10:34.617Z,10.53
2024-02-27T10:15:37.796Z,10.24
2024-02-27T10:20:44.712Z,10.34
2024-02-27T10:25:47.859Z,10.31
2024-02-27T10:30:54.351Z,10.33
2024-02-27T10:35:58.190Z,10.48
2024-02-27T10:41:01.581Z,10.41
2024-02-27T10:46:04.636Z,10.87
2024-02-27T10:51:08.029Z,10.80
2024-02-27T10:56:11.307Z,10.86
2024-02-27T11:01:16.192Z,10.97
2024-02-27T11:06:24.961Z,11.28
2024-02-27T11:11:28.450Z,11.50
2024-02-27T11:16:32.853Z,11.56
2024-02-27T11:21:36.961Z,12.03
2024-02-27T11:26:40.505Z,11.34
2024-02-27T11:31:45.126Z,11.82
2024-02-27T11:37:12.376Z,12.09
2024-02-27T11:42:37.377Z,12.18
2024-02-27T11:47:49.799Z,12.32
2024-02-27T11:52:52.746Z,11.91
2024-02-27T11:57:58.175Z,11.96
2024-02-27T12:03:01.526Z,11.86
2024-02-27T12:08:05.980Z,11.78
2024-02-27T12:13:10.149Z,11.96
2024-02-27T12:18:13.515Z,12.00
2024-02-27T12:23:16.536Z,11.82
2024-02-27T12:28:19.765Z,12.14
2024-02-27T12:33:22.910Z,11.85
2024-02-27T12:38:26.825Z,11.90
2024-02-27T12:43:29.886Z,12.19
2024-02-27T12:48:33.203Z,11.23
2024-02-27T12:53:36.212Z,12.40
2024-02-27T12:58:41.977Z,12.73
2024-02-27T13:03:45.137Z,12.47
2024-02-27T13:08:49.147Z,12.64
2024-02-27T13:13:52.154Z,12.95
2024-02-27T13:18:56.053Z,12.56
2024-02-27T13:24:04.069Z,12.90
2024-02-27T13:29:06.993Z,12.32
2024-02-27T13:34:09.927Z,12.59
2024-02-27T13:39:13.158Z,13.48
2024-02-27T13:44:17.723Z,13.67
2024-02-27T13:49:21.584Z,12.92
2024-02-27T13:54:24.537Z,13.09
2024-02-27T13:59:27.947Z,13.52
2024-02-27T14:04:31.074Z,13.04
2024-02-27T14:09:34.229Z,12.59
2024-02-27T14:14:41.055Z,12.36
2024-02-27T14:19:44.172Z,12.29
2024-02-27T14:24:47.477Z,11.92
2024-02-27T14:29:50.511Z,12.09
2024-02-27T14:34:53.901Z,11.80
2024-02-27T14:39:56.890Z,11.55
2024-02-27T14:44:59.930Z,12.41
2024-02-27T14:50:05.870Z,12.03
2024-02-27T14:55:08.905Z,12.75
2024-02-27T15:00:13.088Z,12.56
2024-02-27T15:05:17.684Z,12.16
2024-02-27T15:10:20.880Z,12.44
2024-02-27T15:15:23.723Z,12.44
2024-02-27T15:20:26.493Z,12.24
2024-02-27T15:25:29.363Z,12.49
2024-02-27T15:30:32.400Z,12.33
2024-02-27T15:35:35.253Z,12.04
2024-02-27T15:40:38.169Z,11.48
2024-02-27T15:45:42.292Z,11.51
2024-02-27T15:50:45.200Z,11.32
2024-02-27T15:55:48.191Z,11.39
2024-02-27T16:00:51.148Z,11.69
2024-02-27T16:06:00.612Z,11.95
2024-02-27T16:11:03.642Z,11.62
2024-02-27T16:16:07.123Z,11.79
2024-02-27T16:21:21.165Z,11.32
2024-02-27T16:26:24.146Z,11.69
2024-02-27T16:31:29.263Z,11.52
2024-02-27T16:36:32.218Z,11.64
2024-02-27T16:41:35.968Z,11.33
2024-02-27T16:46:38.985Z,11.39
2024-02-27T16:51:41.991Z,11.33
2024-02-27T16:56:44.808Z,11.23
2024-02-27T17:01:47.812Z,11.27
2024-02-27T17:06:50.825Z,11.31
2024-02-27T17:11:53.732Z,11.26
2024-02-27T17:16:56.723Z,11.42
2024-02-27T17:21:59.694Z,11.18
2024-02-27T17:27:02.662Z,11.24
2024-02-27T17:32:06.072Z,11.18
2024-02-27T17:37:11.605Z,11.25
2024-02-27T17:42:14.748Z,11.70
2024-02-27T17:47:18.985Z,11.30
2024-02-27T17:52:24.423Z,11.08
2024-02-27T17:57:27.259Z,11.52
2024-02-27T18:02:30.189Z,11.53
2024-02-27T18:07:33.034Z,11.68
2024-02-27T18:12:36.166Z,11.47
2024-02-27T18:17:42.324Z,11.89
2024-02-27T18:22:46.153Z,12.11
2024-02-27T18:27:49.100Z,11.61
2024-02-27T18:32:52.007Z,11.59
2024-02-27T18:37:54.853Z,11.28
2024-02-27T18:42:59.295Z,11.39
2024-02-27T18:48:02.278Z,11.44
2024-02-27T18:53:06.418Z,11.02
2024-02-27T18:58:09.885Z,11.15
2024-02-27T19:03:12.808Z,10.96
2024-02-27T19:08:17.135Z,10.73
2024-02-27T19:13:20.780Z,11.27
2024-02-27T19:18:23.951Z,10.98
2024-02-27T19:23:26.945Z,11.11
2024-02-27T19:28:29.942Z,10.72
2024-02-27T19:33:32.822Z,10.74
2024-02-27T19:38:37.034Z,10.48
2024-02-27T19:43:40.118Z,10.26
2024-02-27T19:48:43.172Z,10.85
2024-02-27T19:53:47.174Z,10.90
2024-02-27T19:58:50.408Z,10.10
2024-02-27T20:03:53.409Z,10.95
2024-02-27T20:08:56.556Z,10.64
2024-02-27T20:13:59.859Z,11.02
2024-02-27T20:19:02.661Z,10.48
2024-02-27T20:24:06.007Z,10.81
2024-02-27T20:29:09.034Z,10.80
2024-02-27T20:34:12.336Z,10.73
2024-02-27T20:39:15.243Z,11.02
2024-02-27T20:44:18.090Z,10.41
2024-02-27T20:49:21.177Z,10.57
2024-02-27T20:54:24.067Z,10.69
2024-02-27T20:59:27.125Z,10.68
2024-02-27T21:04:30.288Z,9.69
2024-02-27T21:09:33.914Z,10.42
2024-02-27T21:14:38.089Z,10.84
2024-02-27T21:19:41.534Z,10.38
2024-02-27T21:24:44.531Z,10.43
2024-02-27T21:29:47.528Z,10.20
2024-02-27T21:34:50.435Z,10.70
2024-02-27T21:39:54.297Z,10.83
2024-02-27T21:44:57.471Z,10.37
2024-02-27T21:50:00.237Z,10.20
2024-02-27T21:55:03.278Z,10.53
2024-02-27T22:00:10.009Z,10.60
2024-02-27T22:05:12.865Z,10.50
2024-02-27T22:10:15.943Z,10.31
2024-02-27T22:15:18.785Z,10.33
2024-02-27T22:20:21.814Z,10.79
2024-02-27T22:25:24.585Z,10.39
2024-02-27T22:30:27.517Z,10.00
2024-02-27T22:35:30.354Z,10.81
2024-02-27T22:40:33.499Z,10.06
2024-02-27T22:45:41.123Z,10.19
2024-02-27T22:50:44.401Z,10.27
2024-02-27T22:55:47.208Z,10.28
2024-02-27T23:00:50.490Z,10.69
2024-02-27T23:05:53.486Z,10.40
2024-02-27T23:10:56.371Z,10.51
2024-02-27T23:15:59.348Z,9.94
2024-02-27T23:21:03.637Z,10.67
2024-02-27T23:26:06.659Z,10.30
2024-02-27T23:31:09.521Z,10.60
2024-02-27T23:36:13.207Z,10.79
2024-02-27T23:41:16.236Z,11.05
2024-02-27T23:46:19.292Z,10.69
2024-02-27T23:51:22.760Z,10.64
2024-02-27T23:56:25.770Z,10.25
